Time;durP1;ratioP1;P1;durP2;ratioP2;P2;SDS_P1;SDS_P2;PMS_P1;PMS_P2;Temp;Humidity;BMP_temperature;BMP_pressure;BME280_temperature;BME280_humidity;BME280_pressure;Samples;Min_cycle;Max_cycle;Signal;HPM_P1;HPM_P2
2023/09/22 00:00:41;;;;;;;6.63;2.72;;;;;;;23.59;69.22;100739.13;5050406;28;20033;-79
2023/09/22 00:03:08;;;;;;;8.18;3.40;;;;;;;23.51;69.50;100742.06;5050727;28;20029;-89
2023/09/22 00:05:35;;;;;;;7.22;3.53;;;;;;;23.47;69.89;100751.75;5051010;28;20028;-90
2023/09/22 00:08:01;;;;;;;5.30;3.35;;;;;;;23.42;70.17;100751.53;5050957;28;20025;-87
2023/09/22 00:10:26;;;;;;;7.70;3.42;;;;;;;23.45;70.42;100758.50;5051109;28;20142;-90
2023/09/22 00:12:54;;;;;;;5.68;3.85;;;;;;;23.44;70.29;100745.81;5051108;28;20500;-88
2023/09/22 00:15:20;;;;;;;6.60;3.08;;;;;;;23.17;70.58;100711.91;5054343;28;20025;-90
2023/09/22 00:17:45;;;;;;;8.48;3.72;;;;;;;23.40;70.82;100759.09;5053517;28;20058;-88
2023/09/22 00:20:14;;;;;;;7.05;3.25;;;;;;;23.29;71.96;100760.53;5032263;28;20037;-89
2023/09/22 00:22:40;;;;;;;9.00;3.35;;;;;;;23.24;72.18;100745.69;5050717;28;20029;-89
2023/09/22 00:25:06;;;;;;;10.10;3.97;;;;;;;23.32;72.03;100753.78;5050491;28;20047;-85
2023/09/22 00:27:31;;;;;;;8.48;3.53;;;;;;;23.20;72.53;100738.94;5051316;28;20020;-91
2023/09/22 00:29:57;;;;;;;4.18;3.00;;;;;;;23.22;73.04;100756.03;5049988;28;20035;-89
2023/09/22 00:32:23;;;;;;;11.35;3.50;;;;;;;23.18;72.70;100735.53;5050265;28;20020;-89
2023/09/22 00:34:48;;;;;;;6.10;2.80;;;;;;;23.14;72.57;100728.78;5049921;28;20190;-89
2023/09/22 00:37:13;;;;;;;8.15;4.00;;;;;;;23.27;72.65;100745.31;5050139;28;20040;-84
2023/09/22 00:39:39;;;;;;;9.68;3.40;;;;;;;23.26;72.70;100738.13;5050597;28;20044;-88
2023/09/22 00:42:09;;;;;;;7.20;3.17;;;;;;;22.99;73.61;100708.88;5030266;28;20493;-88
2023/09/22 00:44:35;;;;;;;6.95;3.55;;;;;;;23.15;74.00;100741.44;5030295;28;20033;-88
2023/09/22 00:47:02;;;;;;;6.63;3.47;;;;;;;23.14;74.27;100751.59;5030496;28;20034;-91
2023/09/22 00:49:30;;;;;;;7.30;4.20;;;;;;;23.09;74.79;100742.25;5030419;28;20037;-89
2023/09/22 00:51:56;;;;;;;4.47;3.38;;;;;;;23.10;74.77;100746.69;5030024;28;20064;-89
2023/09/22 00:54:22;;;;;;;9.05;4.05;;;;;;;23.06;74.51;100748.13;5030249;28;20041;-85
2023/09/22 00:56:47;;;;;;;12.63;4.47;;;;;;;23.13;74.60;100751.78;5030112;28;20120;-90
2023/09/22 00:59:15;;;;;;;8.43;4.32;;;;;;;23.05;74.70;100730.00;5029971;28;20109;-87
2023/09/22 01:01:42;;;;;;;6.47;3.90;;;;;;;23.14;74.67;100746.09;5029741;28;20104;-87
2023/09/22 01:04:08;;;;;;;10.27;4.75;;;;;;;23.10;74.53;100738.47;5029622;28;20494;-89
2023/09/22 01:06:35;;;;;;;17.75;4.72;;;;;;;23.00;74.63;100740.72;5030260;28;20060;-87
2023/09/22 01:09:05;;;;;;;11.50;5.03;;;;;;;22.95;75.21;100729.50;5030113;28;20132;-87
2023/09/22 01:11:33;;;;;;;14.02;5.07;;;;;;;22.97;74.99;100716.44;5030105;28;20025;-88
2023/09/22 01:13:58;;;;;;;17.00;4.93;;;;;;;23.02;74.46;100722.19;5029433;28;20059;-82
2023/09/22 01:16:24;;;;;;;12.75;4.53;;;;;;;22.98;74.75;100729.09;5029972;28;20029;-87
2023/09/22 01:18:49;;;;;;;11.05;4.45;;;;;;;22.93;74.29;100720.66;5010959;28;20144;-87
2023/09/22 01:21:14;;;;;;;8.70;4.82;;;;;;;22.70;74.54;100704.47;5030042;28;20033;-89
2023/09/22 01:23:40;;;;;;;12.05;4.88;;;;;;;22.76;74.89;100731.94;5030043;28;20033;-87
2023/09/22 01:26:06;;;;;;;7.93;4.55;;;;;;;22.55;74.75;100699.06;5029965;28;20026;-88
2023/09/22 01:28:31;;;;;;;10.77;4.68;;;;;;;22.68;74.76;100732.09;5029893;28;20033;-86
2023/09/22 01:30:58;;;;;;;8.02;3.83;;;;;;;22.53;74.79;100719.53;5031916;28;20033;-90
2023/09/22 01:33:24;;;;;;;13.10;4.80;;;;;;;22.49;75.34;100713.59;5033976;28;20031;-88
2023/09/22 01:35:49;;;;;;;16.42;4.13;;;;;;;22.57;75.78;100732.59;5033493;28;20037;-89
2023/09/22 01:38:24;;;;;;;10.40;4.25;;;;;;;22.61;75.93;100733.91;5033870;28;20523;-88
2023/09/22 01:40:50;;;;;;;16.80;5.28;;;;;;;22.30;76.14;100703.31;5033729;28;20026;-88
2023/09/22 01:43:17;;;;;;;12.88;4.82;;;;;;;22.46;76.42;100746.88;5053477;28;20053;-89
2023/09/22 01:45:43;;;;;;;10.48;4.53;;;;;;;22.39;76.68;100742.38;5063094;28;20073;-84
2023/09/22 01:48:09;;;;;;;10.05;4.57;;;;;;;22.36;76.92;100751.84;5068119;28;20033;-86
2023/09/22 01:50:40;;;;;;;5.32;3.70;;;;;;;22.35;77.36;100750.16;5060962;28;20033;-80
2023/09/22 01:53:10;;;;;;;13.52;4.63;;;;;;;22.32;77.45;100731.38;5078987;28;20033;-86
2023/09/22 01:55:40;;;;;;;6.38;4.15;;;;;;;22.30;77.38;100729.88;5078952;28;20024;-83
2023/09/22 01:58:11;;;;;;;11.57;4.75;;;;;;;22.22;77.32;100728.13;5076714;28;20025;-87
2023/09/22 02:00:36;;;;;;;12.95;4.32;;;;;;;22.19;77.75;100731.25;5074513;28;20028;-84
2023/09/22 02:03:03;;;;;;;16.60;4.32;;;;;;;22.13;78.45;100729.31;5065188;28;20032;-88
2023/09/22 02:05:29;;;;;;;5.45;3.80;;;;;;;21.97;78.79;100708.53;5057967;28;20068;-88
2023/09/22 02:07:57;;;;;;;8.05;4.32;;;;;;;22.01;79.07;100730.88;5058423;28;20070;-88
2023/09/22 02:10:23;;;;;;;11.73;4.85;;;;;;;22.03;79.28;100740.59;5058162;28;20025;-89
2023/09/22 02:12:48;;;;;;;6.32;3.65;;;;;;;22.03;79.42;100739.75;5053996;28;20617;-85
2023/09/22 02:15:14;;;;;;;11.02;4.32;;;;;;;21.86;79.64;100713.66;5053429;28;20048;-86
2023/09/22 02:17:44;;;;;;;9.75;4.63;;;;;;;21.73;80.10;100699.81;5052101;28;20488;-89
2023/09/22 02:22:43;;;;;;;18.55;5.20;;;;;;;21.89;80.78;100726.97;5017906;28;20398;-88
2023/09/22 02:25:09;;;;;;;9.93;4.20;;;;;;;21.89;81.23;100737.94;5052272;28;20033;-87
2023/09/22 02:27:35;;;;;;;9.52;4.82;;;;;;;21.91;81.60;100733.94;5000131;28;20033;-88
2023/09/22 02:30:00;;;;;;;15.70;5.88;;;;;;;21.97;81.79;100740.53;5052135;28;20025;-89
2023/09/22 02:32:26;;;;;;;7.88;4.00;;;;;;;21.98;82.03;100736.75;5052157;28;20025;-90
2023/09/22 02:34:52;;;;;;;9.68;4.47;;;;;;;21.96;81.91;100725.97;5052327;28;20025;-87
2023/09/22 02:37:17;;;;;;;18.00;4.47;;;;;;;22.00;81.89;100724.56;5052107;28;20055;-89
2023/09/22 02:39:44;;;;;;;31.08;6.82;;;;;;;22.04;81.50;100725.88;5052452;28;20036;-88
2023/09/22 02:42:10;;;;;;;7.20;4.43;;;;;;;21.80;81.40;100690.63;5051095;28;20057;-87
2023/09/22 02:44:36;;;;;;;16.70;5.00;;;;;;;21.95;81.77;100715.25;5034474;28;20105;-87
2023/09/22 02:47:02;;;;;;;7.90;4.80;;;;;;;21.77;81.91;100685.56;5052420;28;20021;-87
2023/09/22 02:49:29;;;;;;;11.43;5.35;;;;;;;21.94;82.33;100719.00;5052659;28;20037;-88
2023/09/22 02:51:56;;;;;;;10.55;5.85;;;;;;;21.89;82.25;100710.56;5052200;28;20029;-88
2023/09/22 02:54:21;;;;;;;7.47;4.40;;;;;;;21.93;82.24;100718.16;5051479;28;20392;-87
2023/09/22 02:56:47;;;;;;;16.92;4.20;;;;;;;21.91;82.37;100724.88;5052384;28;20108;-90
2023/09/22 02:59:14;;;;;;;10.98;4.25;;;;;;;21.81;82.68;100713.38;5051781;28;20037;-86
2023/09/22 03:01:41;;;;;;;10.38;4.18;;;;;;;22.01;83.02;100731.75;5052008;28;20107;-88
2023/09/22 03:04:10;;;;;;;11.35;4.88;;;;;;;22.05;82.87;100734.91;5051647;28;20025;-88
2023/09/22 03:06:36;;;;;;;10.60;4.65;;;;;;;22.03;83.04;100745.22;5051672;28;20412;-89
2023/09/22 03:09:06;;;;;;;12.20;5.50;;;;;;;22.07;83.51;100752.03;5051557;28;20032;-90
2023/09/22 03:11:37;;;;;;;8.98;5.22;;;;;;;21.96;83.61;100733.34;5051953;28;20021;-89
2023/09/22 03:14:03;;;;;;;14.17;6.37;;;;;;;22.10;83.95;100740.66;5051989;28;20017;-90
2023/09/22 03:16:30;;;;;;;5.47;4.43;;;;;;;21.99;83.78;100719.25;5051626;28;20449;-88
2023/09/22 03:18:56;;;;;;;8.73;4.90;;;;;;;22.13;83.02;100743.00;5051301;28;20374;-85
2023/09/22 03:21:23;;;;;;;10.90;5.50;;;;;;;22.12;83.00;100744.03;5051562;28;20039;-88
2023/09/22 03:23:52;;;;;;;9.05;3.95;;;;;;;22.27;82.53;100758.50;5016466;28;20068;-87
2023/09/22 03:26:18;;;;;;;18.60;6.57;;;;;;;22.28;82.35;100760.22;5051349;28;20110;-91
2023/09/22 03:28:47;;;;;;;19.35;5.53;;;;;;;22.07;82.96;100732.84;5051401;28;20119;-88
2023/09/22 03:31:13;;;;;;;28.73;8.13;;;;;;;22.05;83.09;100718.47;5051156;28;20033;-88
2023/09/22 03:33:41;;;;;;;9.60;5.70;;;;;;;22.19;82.93;100747.69;5051014;28;20032;-87
2023/09/22 03:36:10;;;;;;;32.72;7.97;;;;;;;22.26;82.71;100756.84;5050018;28;20068;-87
2023/09/22 03:38:41;;;;;;;28.77;7.10;;;;;;;22.22;82.80;100741.84;5051165;28;20075;-88
2023/09/22 03:41:06;;;;;;;15.15;5.15;;;;;;;22.29;82.45;100764.66;5050795;28;20059;-89
2023/09/22 03:43:35;;;;;;;45.10;8.07;;;;;;;22.29;82.71;100753.72;5051089;28;20060;-90
2023/09/22 03:46:00;;;;;;;12.73;5.65;;;;;;;22.29;82.21;100756.44;4999533;28;20056;-89
2023/09/22 03:48:26;;;;;;;21.80;7.05;;;;;;;22.27;82.42;100754.91;5051088;28;20567;-90
2023/09/22 03:50:53;;;;;;;26.50;8.63;;;;;;;22.24;82.41;100747.94;5050699;28;20032;-89
2023/09/22 03:53:18;;;;;;;25.58;6.95;;;;;;;22.24;82.60;100753.44;5050790;28;20410;-87
2023/09/22 03:55:44;;;;;;;27.83;11.00;;;;;;;22.22;82.99;100745.41;5052092;28;20051;-90
2023/09/22 03:58:10;;;;;;;26.15;10.35;;;;;;;22.21;83.10;100759.31;5050963;28;20404;-88
2023/09/22 04:00:36;;;;;;;35.95;11.70;;;;;;;22.21;83.61;100764.78;5050621;28;20516;-88
2023/09/22 04:03:02;;;;;;;29.95;7.32;;;;;;;22.10;83.71;100762.59;5050634;28;20474;-89
2023/09/22 04:05:27;;;;;;;35.97;6.40;;;;;;;22.10;83.99;100757.09;5052367;28;20060;-88
2023/09/22 04:07:57;;;;;;;20.83;5.88;;;;;;;22.13;84.12;100762.19;5051389;28;20025;-88
2023/09/22 04:10:23;;;;;;;17.98;6.05;;;;;;;22.15;84.50;100751.88;5050244;28;20033;-88
2023/09/22 04:12:50;;;;;;;27.85;6.43;;;;;;;22.17;84.42;100760.72;5051341;28;20025;-87
2023/09/22 04:15:15;;;;;;;16.80;6.90;;;;;;;21.95;84.36;100726.19;5050250;28;20036;-90
2023/09/22 04:17:42;;;;;;;26.02;7.72;;;;;;;22.13;84.39;100752.09;5050116;28;20025;-88
2023/09/22 04:20:10;;;;;;;26.42;7.97;;;;;;;22.25;84.44;100777.06;5050746;28;20043;-89
2023/09/22 04:22:37;;;;;;;15.43;6.13;;;;;;;22.31;84.35;100776.25;5051176;28;20031;-90
2023/09/22 04:25:09;;;;;;;17.17;6.68;;;;;;;22.31;84.58;100770.78;5050923;28;20091;-88
2023/09/22 04:27:40;;;;;;;19.45;6.60;;;;;;;22.19;84.39;100743.06;5050795;28;20027;-88
2023/09/22 04:30:07;;;;;;;13.38;6.80;;;;;;;22.16;84.18;100734.41;5050552;28;20021;-89
2023/09/22 04:32:33;;;;;;;25.42;7.43;;;;;;;22.23;84.22;100743.53;5050322;28;20512;-86
2023/09/22 04:35:02;;;;;;;60.85;9.98;;;;;;;22.40;84.14;100766.88;5049988;28;20033;-89
2023/09/22 04:37:27;;;;;;;40.95;8.25;;;;;;;22.42;84.03;100762.00;5050504;28;20048;-88
2023/09/22 04:39:54;;;;;;;29.38;7.35;;;;;;;22.50;84.19;100769.25;5050011;28;20060;-88
2023/09/22 04:42:22;;;;;;;31.27;8.48;;;;;;;22.54;84.10;100754.09;5049723;28;20055;-87
2023/09/22 04:44:50;;;;;;;49.85;9.00;;;;;;;22.57;83.86;100765.50;5050154;28;20496;-86
2023/09/22 04:47:16;;;;;;;33.22;8.23;;;;;;;22.38;83.88;100722.38;5051414;28;20029;-87
2023/09/22 04:49:42;;;;;;;28.20;8.38;;;;;;;22.58;83.88;100750.75;5050996;28;20025;-89
2023/09/22 04:52:08;;;;;;;27.65;7.78;;;;;;;22.76;84.11;100774.97;5050056;28;20120;-89
2023/09/22 04:54:33;;;;;;;24.27;5.28;;;;;;;22.57;85.18;100743.56;5050312;28;20032;-87
2023/09/22 04:56:59;;;;;;;20.50;4.70;;;;;;;22.61;85.74;100744.88;5049914;28;20021;-89
2023/09/22 04:59:25;;;;;;;37.63;6.80;;;;;;;22.89;85.52;100765.97;5049954;28;20104;-89
2023/09/22 05:01:50;;;;;;;33.45;7.03;;;;;;;22.85;85.04;100745.47;5050175;28;20413;-87
2023/09/22 05:04:16;;;;;;;21.90;6.07;;;;;;;22.96;84.95;100769.63;5032206;28;20068;-88
2023/09/22 05:06:44;;;;;;;12.15;3.95;;;;;;;22.93;85.13;100767.28;5057220;28;20036;-87
2023/09/22 05:09:10;;;;;;;9.55;4.10;;;;;;;22.93;86.04;100775.50;5060941;28;20025;-87
2023/09/22 05:11:36;;;;;;;44.90;10.15;;;;;;;22.70;85.84;100721.78;5059854;28;20032;-88
2023/09/22 05:14:03;;;;;;;33.72;6.18;;;;;;;22.91;86.46;100769.38;5060137;28;20025;-87
2023/09/22 05:16:29;;;;;;;10.45;4.25;;;;;;;22.95;86.74;100770.66;5007308;28;20055;-86
2023/09/22 05:18:55;;;;;;;34.63;14.55;;;;;;;23.01;86.76;100775.34;5056400;28;20025;-85
2023/09/22 05:21:20;;;;;;;55.35;36.38;;;;;;;23.11;86.73;100782.16;5053975;28;20037;-88
2023/09/22 05:23:47;;;;;;;22.45;5.18;;;;;;;23.21;86.20;100770.81;5054919;28;20425;-89
2023/09/22 05:26:12;;;;;;;17.13;6.38;;;;;;;23.34;85.49;100770.88;5054362;28;20082;-91
2023/09/22 05:28:38;;;;;;;238.80;25.58;;;;;;;23.38;85.51;100771.31;5054295;28;20045;-91
2023/09/22 05:31:05;;;;;;;8.85;3.75;;;;;;;23.41;85.24;100785.53;5054040;28;20025;-86
2023/09/22 05:33:35;;;;;;;19.67;4.68;;;;;;;23.53;85.16;100778.38;5054318;28;20025;-88
2023/09/22 05:36:01;;;;;;;19.00;5.68;;;;;;;23.30;84.71;100761.38;5054692;28;20025;-87
2023/09/22 05:38:26;;;;;;;20.60;5.10;;;;;;;23.44;85.68;100776.88;5056786;28;20492;-88
2023/09/22 05:40:52;;;;;;;18.27;4.88;;;;;;;23.48;85.76;100780.91;5053696;28;20104;-89
2023/09/22 05:43:18;;;;;;;16.60;4.40;;;;;;;23.52;85.73;100781.31;5053347;28;20064;-88
2023/09/22 05:45:43;;;;;;;12.02;4.90;;;;;;;23.55;85.21;100786.41;5034425;28;20561;-88
2023/09/22 05:48:09;;;;;;;25.90;6.15;;;;;;;23.50;85.22;100791.69;5052929;28;20101;-88
2023/09/22 05:50:36;;;;;;;16.90;4.35;;;;;;;23.58;85.47;100794.22;5053082;28;20057;-90
2023/09/22 05:53:04;;;;;;;21.48;5.35;;;;;;;23.41;84.92;100774.53;5052936;28;20055;-88
2023/09/22 05:55:30;;;;;;;11.05;4.00;;;;;;;23.53;84.90;100792.13;5052669;28;20028;-87
2023/09/22 05:57:56;;;;;;;14.77;4.10;;;;;;;23.56;85.25;100810.94;5053051;28;20120;-89
2023/09/22 06:00:26;;;;;;;14.45;5.10;;;;;;;23.66;85.21;100803.16;5053550;28;20109;-88
2023/09/22 06:02:52;;;;;;;10.98;4.82;;;;;;;23.88;84.27;100797.53;5053189;28;20029;-88
2023/09/22 06:05:22;;;;;;;14.52;4.55;;;;;;;23.87;83.81;100801.31;5053101;28;20119;-87
2023/09/22 06:07:54;;;;;;;11.52;6.72;;;;;;;23.97;84.00;100796.28;5053310;28;20029;-88
2023/09/22 06:10:20;;;;;;;21.98;4.85;;;;;;;23.93;82.56;100803.22;5053227;28;20029;-89
2023/09/22 06:12:46;;;;;;;11.70;4.25;;;;;;;23.89;82.81;100804.69;5053190;28;20025;-87
2023/09/22 06:15:15;;;;;;;22.60;5.30;;;;;;;23.88;82.99;100786.53;5053026;28;20025;-90
2023/09/22 06:17:41;;;;;;;7.40;3.75;;;;;;;23.86;82.81;100803.22;5051687;28;20029;-88
2023/09/22 06:20:13;;;;;;;15.82;3.33;;;;;;;23.94;83.21;100821.44;5053960;28;20098;-86
2023/09/22 06:22:42;;;;;;;97.40;13.70;;;;;;;24.00;82.85;100809.59;5062311;28;20044;-86
2023/09/22 06:25:08;;;;;;;10.38;4.22;;;;;;;24.02;82.24;100804.75;5058593;28;20433;-87
2023/09/22 06:27:34;;;;;;;14.18;3.97;;;;;;;24.09;82.05;100805.59;5053184;28;20472;-88
2023/09/22 06:30:01;;;;;;;17.45;4.07;;;;;;;24.16;80.71;100811.97;5054502;28;20040;-86
2023/09/22 06:32:26;;;;;;;81.97;12.18;;;;;;;24.27;80.78;100808.63;5057827;28;20086;-89
2023/09/22 06:34:53;;;;;;;13.35;5.03;;;;;;;24.25;80.45;100806.06;5057382;28;20080;-87
2023/09/22 06:37:19;;;;;;;13.43;3.70;;;;;;;23.99;80.62;100772.19;5060776;28;20049;-86
2023/09/22 06:39:45;;;;;;;12.20;4.63;;;;;;;24.17;81.13;100813.69;5059498;28;20085;-87
2023/09/22 06:42:11;;;;;;;31.60;4.90;;;;;;;24.21;81.55;100809.47;5054911;28;20057;-87
2023/09/22 06:44:36;;;;;;;14.63;4.35;;;;;;;24.24;80.75;100809.06;5054858;28;20079;-89
2023/09/22 06:47:03;;;;;;;8.05;3.42;;;;;;;24.06;80.14;100784.88;5054009;28;20091;-87
2023/09/22 06:49:28;;;;;;;7.35;3.53;;;;;;;24.12;80.33;100802.47;5058588;28;20081;-88
2023/09/22 06:51:54;;;;;;;11.60;4.22;;;;;;;24.25;80.64;100817.06;5061226;28;20064;-86
2023/09/22 06:54:20;;;;;;;20.50;4.03;;;;;;;24.13;81.11;100829.72;5066183;28;20033;-89
2023/09/22 06:56:46;;;;;;;10.52;4.38;;;;;;;24.12;81.89;100829.97;5069370;28;20033;-86
2023/09/22 06:59:13;;;;;;;12.50;4.13;;;;;;;24.11;81.97;100842.00;5068615;28;20021;-83
2023/09/22 07:01:40;;;;;;;13.95;4.32;;;;;;;24.10;82.43;100840.25;5062134;28;20029;-88
2023/09/22 07:04:09;;;;;;;14.10;4.50;;;;;;;24.09;82.35;100833.09;5052908;28;20197;-87
2023/09/22 07:06:37;;;;;;;14.32;5.15;;;;;;;24.25;82.36;100838.22;5051537;28;20039;-81
2023/09/22 07:09:09;;;;;;;7.43;3.60;;;;;;;23.99;82.08;100818.88;5050878;28;20033;-78
2023/09/22 07:11:39;;;;;;;16.92;4.78;;;;;;;24.16;82.06;100822.97;5051334;28;20104;-80
2023/09/22 07:14:05;;;;;;;18.20;3.97;;;;;;;24.14;82.17;100814.09;5051492;28;20037;-79
2023/09/22 07:16:32;;;;;;;15.27;3.83;;;;;;;24.02;81.60;100788.25;5051449;28;20066;-78
2023/09/22 07:18:58;;;;;;;17.08;4.10;;;;;;;24.33;81.36;100840.78;5050080;28;20492;-80
2023/09/22 07:21:23;;;;;;;25.67;4.97;;;;;;;24.46;81.01;100839.97;5051120;28;20024;-80
2023/09/22 07:23:49;;;;;;;8.23;3.30;;;;;;;24.43;80.22;100830.22;5051050;28;20461;-80
2023/09/22 07:26:14;;;;;;;7.90;3.45;;;;;;;24.47;79.05;100842.47;5050812;28;20021;-79
2023/09/22 07:28:39;;;;;;;8.75;4.43;;;;;;;24.49;79.15;100851.38;5031657;28;20041;-80
2023/09/22 07:31:18;;;;;;;9.25;3.60;;;;;;;24.38;76.86;100839.09;5050292;28;20421;-80
2023/09/22 07:33:43;;;;;;;9.90;4.13;;;;;;;24.51;76.91;100843.75;5050585;28;20032;-80
2023/09/22 07:36:10;;;;;;;13.50;4.28;;;;;;;24.56;74.48;100849.47;5050505;28;20448;-79
2023/09/22 07:38:36;;;;;;;18.80;3.53;;;;;;;24.57;73.67;100836.56;5051628;28;20392;-80
2023/09/22 07:41:02;;;;;;;11.48;4.55;;;;;;;24.57;72.97;100831.06;5031493;28;20068;-80
2023/09/22 07:43:30;;;;;;;12.15;4.03;;;;;;;24.55;72.17;100838.69;5050868;28;20052;-79
2023/09/22 07:46:03;;;;;;;20.42;4.03;;;;;;;24.56;72.18;100843.97;5050471;28;20485;-82
2023/09/22 07:48:29;;;;;;;6.10;3.40;;;;;;;24.58;71.67;100855.63;5050658;28;20449;-82
2023/09/22 07:50:54;;;;;;;12.05;3.78;;;;;;;24.53;70.92;100866.41;5051191;28;20089;-83
2023/09/22 07:53:20;;;;;;;10.07;3.30;;;;;;;24.60;71.21;100859.00;5049451;28;20465;-84
2023/09/22 07:55:47;;;;;;;3.85;2.88;;;;;;;24.48;70.94;100844.19;5050289;28;20055;-86
2023/09/22 07:58:13;;;;;;;10.13;3.80;;;;;;;24.64;70.92;100860.28;5050128;28;20635;-85
2023/09/22 08:00:42;;;;;;;16.08;4.47;;;;;;;24.63;71.81;100847.59;5050483;28;20108;-79
2023/09/22 08:03:09;;;;;;;10.70;3.65;;;;;;;24.74;70.75;100866.19;5049711;28;20029;-79
2023/09/22 08:05:35;;;;;;;7.07;3.45;;;;;;;24.71;71.09;100861.13;5049814;28;20036;-79
2023/09/22 08:08:01;;;;;;;8.25;3.53;;;;;;;24.82;71.51;100871.53;5049764;28;20493;-81
2023/09/22 08:10:29;;;;;;;23.67;4.53;;;;;;;24.92;71.40;100877.44;5049956;28;20466;-84
2023/09/22 08:12:54;;;;;;;18.38;4.72;;;;;;;24.95;70.76;100867.09;5049821;28;20555;-83
2023/09/22 08:15:21;;;;;;;12.38;3.30;;;;;;;24.99;70.31;100858.19;5050270;28;20028;-86
2023/09/22 08:17:47;;;;;;;13.63;3.85;;;;;;;24.95;69.90;100845.94;5049721;28;20029;-84
2023/09/22 08:20:13;;;;;;;17.95;3.65;;;;;;;24.89;71.18;100850.34;5050441;28;20083;-83
2023/09/22 08:22:42;;;;;;;23.83;4.47;;;;;;;24.94;71.24;100844.22;5050653;28;20481;-86
2023/09/22 08:25:09;;;;;;;19.45;4.15;;;;;;;25.01;70.21;100845.06;5049963;28;20386;-84
2023/09/22 08:27:38;;;;;;;14.40;3.58;;;;;;;24.99;70.47;100849.06;5049737;28;20033;-84
2023/09/22 08:30:11;;;;;;;15.35;3.78;;;;;;;24.80;71.32;100846.09;5050597;28;20047;-84
2023/09/22 08:32:39;;;;;;;11.13;4.30;;;;;;;24.76;71.37;100839.34;5031052;28;20029;-86
2023/09/22 08:35:06;;;;;;;16.33;3.60;;;;;;;24.85;71.43;100840.84;5050091;28;20120;-84
2023/09/22 08:37:33;;;;;;;8.80;3.15;;;;;;;24.85;70.97;100840.84;5050107;28;20430;-84
2023/09/22 08:40:00;;;;;;;25.23;4.25;;;;;;;24.95;70.05;100842.31;5049619;28;20120;-83
2023/09/22 08:42:26;;;;;;;17.30;3.97;;;;;;;25.07;68.14;100843.38;5049869;28;20076;-84
2023/09/22 08:44:55;;;;;;;29.98;5.00;;;;;;;25.04;67.17;100841.03;5052068;28;20037;-87
2023/09/22 08:47:22;;;;;;;10.73;4.13;;;;;;;25.09;66.78;100828.31;5050677;28;20247;-84
2023/09/22 08:49:47;;;;;;;19.35;3.78;;;;;;;25.24;66.06;100836.34;5049821;28;20022;-80
2023/09/22 08:52:12;;;;;;;4.30;2.67;;;;;;;25.20;66.12;100837.81;5032023;28;20597;-88
2023/09/22 08:54:39;;;;;;;16.27;4.28;;;;;;;25.25;65.44;100838.03;5050179;28;20029;-87
2023/09/22 08:57:05;;;;;;;25.15;3.70;;;;;;;25.29;64.91;100820.00;5033523;28;20025;-80
2023/09/22 08:59:30;;;;;;;16.33;4.15;;;;;;;25.23;64.20;100810.69;5051250;28;20055;-83
2023/09/22 09:01:56;;;;;;;6.55;2.88;;;;;;;25.30;65.00;100816.19;5072809;28;20059;-81
2023/09/22 09:04:33;;;;;;;18.85;3.65;;;;;;;25.38;65.68;100825.06;5075100;28;20077;-80
2023/09/22 09:06:59;;;;;;;23.90;3.40;;;;;;;25.42;65.08;100819.97;5074998;28;20040;-81
2023/09/22 09:09:24;;;;;;;22.25;3.75;;;;;;;25.47;65.26;100811.94;5071215;28;20025;-83
2023/09/22 09:12:00;;;;;;;18.30;3.47;;;;;;;25.49;64.34;100809.81;5055237;28;20055;-85
2023/09/22 09:14:28;;;;;;;16.38;3.40;;;;;;;25.50;64.35;100816.19;5063763;28;20044;-86
2023/09/22 09:16:56;;;;;;;13.23;3.70;;;;;;;25.59;65.15;100814.88;5055208;28;20112;-82
2023/09/22 09:19:21;;;;;;;21.20;4.72;;;;;;;25.55;64.00;100822.72;5059664;28;20135;-84
2023/09/22 09:22:09;;;;;;;12.98;3.67;;;;;;;25.50;64.62;100822.53;5051995;28;20440;-84
2023/09/22 09:24:36;;;;;;;15.05;4.28;;;;;;;25.39;63.97;100795.63;5050309;28;20043;-84
2023/09/22 09:27:14;;;;;;;7.22;2.72;;;;;;;25.45;62.98;100797.50;5049695;28;20056;-82
2023/09/22 09:29:40;;;;;;;14.60;3.88;;;;;;;25.50;63.58;100811.53;5049396;28;20108;-84
2023/09/22 09:32:07;;;;;;;50.28;7.78;;;;;;;25.65;63.84;100814.84;5049619;28;20117;-82
2023/09/22 09:34:40;;;;;;;18.80;3.92;;;;;;;25.55;62.64;100802.59;5050161;28;20037;-82
2023/09/22 09:37:16;;;;;;;8.40;4.25;;;;;;;25.64;63.53;100818.66;5049552;28;20032;-82
2023/09/22 09:39:44;;;;;;;11.75;3.60;;;;;;;25.72;64.28;100821.16;5049422;28;20120;-85
2023/09/22 09:42:13;;;;;;;7.68;3.58;;;;;;;25.73;63.52;100822.84;5049256;28;20123;-84
2023/09/22 09:44:47;;;;;;;15.57;4.10;;;;;;;25.75;64.54;100782.13;5049170;28;20504;-82
2023/09/22 09:47:24;;;;;;;22.10;4.75;;;;;;;26.06;64.63;100814.41;5049442;28;20075;-85
2023/09/22 09:49:52;;;;;;;17.75;4.20;;;;;;;25.96;64.30;100816.81;5049517;28;20386;-84
2023/09/22 09:52:24;;;;;;;16.70;4.72;;;;;;;25.95;65.87;100815.13;5051434;28;20029;-84
2023/09/22 09:55:01;;;;;;;49.70;6.07;;;;;;;25.71;65.88;100791.94;5052786;28;20021;-86
2023/09/22 09:57:28;;;;;;;10.95;3.53;;;;;;;25.74;65.62;100812.69;5053421;28;20079;-84
2023/09/22 09:59:54;;;;;;;13.00;4.65;;;;;;;25.76;66.38;100821.56;5053195;28;20067;-82
2023/09/22 10:02:21;;;;;;;35.75;6.80;;;;;;;25.83;66.90;100806.72;5035196;28;20087;-82
2023/09/22 10:04:48;;;;;;;13.63;4.60;;;;;;;26.02;66.06;100809.56;5053597;28;20037;-84
2023/09/22 10:07:15;;;;;;;29.35;5.38;;;;;;;25.89;65.82;100793.94;5053148;28;20025;-83
2023/09/22 10:09:41;;;;;;;25.83;4.00;;;;;;;25.91;66.41;100797.31;5052484;28;20040;-82
2023/09/22 10:12:07;;;;;;;10.57;3.88;;;;;;;25.83;66.25;100800.34;5053164;28;20052;-84
2023/09/22 10:14:46;;;;;;;6.55;4.20;;;;;;;25.82;67.70;100806.91;5052415;28;20057;-82
2023/09/22 10:17:22;;;;;;;5.70;3.72;;;;;;;25.75;67.54;100776.63;5051801;28;20437;-83
2023/09/22 10:19:48;;;;;;;9.07;4.30;;;;;;;26.15;67.68;100810.34;5051934;28;20031;-84
2023/09/22 10:22:14;;;;;;;10.38;4.55;;;;;;;26.10;67.19;100781.72;5052248;28;20037;-84
2023/09/22 10:24:42;;;;;;;25.50;6.78;;;;;;;26.16;67.62;100783.63;5052190;28;20036;-79
2023/09/22 10:27:14;;;;;;;6.38;3.33;;;;;;;26.42;66.69;100794.47;5052152;28;20532;-83
2023/09/22 10:29:45;;;;;;;19.25;4.35;;;;;;;26.52;65.39;100794.81;5052017;28;20488;-83
2023/09/22 10:32:18;;;;;;;13.43;4.53;;;;;;;26.51;64.77;100793.13;5052191;28;20033;-83
2023/09/22 10:34:55;;;;;;;23.75;4.78;;;;;;;26.52;65.16;100784.63;5052190;28;20020;-83
2023/09/22 10:37:23;;;;;;;12.70;4.45;;;;;;;26.42;66.09;100788.97;5051819;28;20029;-83
2023/09/22 10:39:55;;;;;;;12.48;4.28;;;;;;;26.45;65.83;100781.06;5054160;28;20025;-84
2023/09/22 10:42:21;;;;;;;8.75;4.47;;;;;;;26.34;65.72;100786.47;5051922;28;20494;-85
2023/09/22 10:44:56;;;;;;;13.32;4.22;;;;;;;26.31;66.13;100784.16;5052040;28;20424;-85
2023/09/22 10:47:22;;;;;;;14.40;4.22;;;;;;;26.31;65.48;100773.97;5051271;28;20571;-84
2023/09/22 10:49:48;;;;;;;14.68;4.65;;;;;;;26.46;65.58;100780.00;5051942;28;20025;-82
2023/09/22 10:52:17;;;;;;;31.30;5.97;;;;;;;26.37;64.15;100770.31;5051528;28;20029;-82
2023/09/22 10:54:43;;;;;;;12.30;3.33;;;;;;;26.38;62.82;100765.66;5051523;28;20057;-84
2023/09/22 10:57:22;;;;;;;14.88;4.13;;;;;;;26.46;62.37;100773.63;5051873;28;20178;-82
2023/09/22 10:59:48;;;;;;;17.40;3.55;;;;;;;26.47;62.68;100772.56;5051595;28;20025;-84
2023/09/22 11:02:24;;;;;;;8.38;4.22;;;;;;;26.45;63.75;100764.50;5056594;28;20063;-84
2023/09/22 11:04:51;;;;;;;13.38;4.05;;;;;;;26.63;62.47;100760.13;5056655;28;20021;-83
2023/09/22 11:07:32;;;;;;;12.93;4.63;;;;;;;26.46;62.68;100723.97;5058548;28;20401;-84
2023/09/22 11:09:59;;;;;;;17.50;4.30;;;;;;;26.52;60.86;100758.94;5057096;28;20025;-84
2023/09/22 11:12:26;;;;;;;13.20;4.43;;;;;;;26.60;60.78;100761.44;5058632;28;20482;-83
2023/09/22 11:14:53;;;;;;;13.68;4.00;;;;;;;26.62;59.27;100752.91;5051718;28;20021;-85
2023/09/22 11:17:19;;;;;;;20.83;4.55;;;;;;;26.67;59.04;100764.97;5051420;28;20055;-84
2023/09/22 11:19:54;;;;;;;11.88;5.00;;;;;;;26.46;57.94;100735.03;5052131;28;20107;-83
2023/09/22 11:22:20;;;;;;;19.52;4.63;;;;;;;26.59;58.49;100756.97;5051071;28;20504;-84